CFG68 EDDK-HEGN
Flight info
| Callsign | CFG68 |
|---|---|
| Flight time | N/A |
| Altitude | 35000 |
| Route | KUMIK7K KUMIK L603 TESGA DCT ESATI DCT DETEV DCT DINKU/N0446F310 L603 BESNI/N0451F350 L603 OLETU Z106 BAVAX M867 RADIZ DCT PINDO/N0444F370 DCT PAXIS L607 NABSI P557 OBRAN L321 REXUM M872 BOPOB BOPOB1A |
| Aircraft | A320/M-SDE3FGHIRWY/LB1 |
Departure
| Time | 2026-04-22 13:24 |
|---|---|
| Airport | Cologne Bonn Airport (EDDK) |
Arrival
| Time | N/A |
|---|---|
| Airport | Hurghada International Airport (HEGN) |
| Time | Latitude | Longitude | Altitude | Speed | Heading |
|---|---|---|---|---|---|
| 2026-04-22 12:50 | 50.88224 | 7.11859 | 232 ft | 0 kts | 216° |
| 2026-04-22 13:13 | 50.88229 | 7.11866 | 232 ft | 4 kts | 216° |
| 2026-04-22 13:14 | 50.88247 | 7.11886 | 234 ft | 4 kts | 216° |
| 2026-04-22 13:14 | 50.88267 | 7.11906 | 236 ft | 4 kts | 191° |
| 2026-04-22 13:14 | 50.88290 | 7.11900 | 232 ft | 4 kts | 136° |
| 2026-04-22 13:14 | 50.88300 | 7.11881 | 235 ft | 2 kts | 126° |
| 2026-04-22 13:15 | 50.88301 | 7.11880 | 235 ft | 0 kts | 126° |
| 2026-04-22 13:17 | 50.88283 | 7.11919 | 235 ft | 9 kts | 126° |
| 2026-04-22 13:17 | 50.88248 | 7.11995 | 232 ft | 8 kts | 126° |
| 2026-04-22 13:17 | 50.88214 | 7.12071 | 232 ft | 9 kts | 126° |
| 2026-04-22 13:17 | 50.88168 | 7.12171 | 232 ft | 13 kts | 126° |
| 2026-04-22 13:18 | 50.88111 | 7.12295 | 234 ft | 15 kts | 126° |
| 2026-04-22 13:18 | 50.88045 | 7.12431 | 232 ft | 16 kts | 133° |
| 2026-04-22 13:18 | 50.87960 | 7.12556 | 232 ft | 17 kts | 137° |
| 2026-04-22 13:18 | 50.87859 | 7.12597 | 235 ft | 16 kts | 197° |
| 2026-04-22 13:19 | 50.87762 | 7.12548 | 232 ft | 14 kts | 198° |
| 2026-04-22 13:19 | 50.87677 | 7.12505 | 232 ft | 13 kts | 198° |
| 2026-04-22 13:19 | 50.87589 | 7.12459 | 233 ft | 14 kts | 198° |
| 2026-04-22 13:19 | 50.87489 | 7.12407 | 232 ft | 16 kts | 198° |
| 2026-04-22 13:20 | 50.87381 | 7.12352 | 232 ft | 15 kts | 198° |
| 2026-04-22 13:20 | 50.87288 | 7.12304 | 233 ft | 13 kts | 198° |
| 2026-04-22 13:20 | 50.87208 | 7.12263 | 232 ft | 12 kts | 198° |
| 2026-04-22 13:20 | 50.87127 | 7.12193 | 233 ft | 13 kts | 225° |
| 2026-04-22 13:21 | 50.87058 | 7.12088 | 234 ft | 15 kts | 213° |
| 2026-04-22 13:21 | 50.86944 | 7.12045 | 232 ft | 19 kts | 176° |
| 2026-04-22 13:21 | 50.86807 | 7.12100 | 234 ft | 21 kts | 166° |
| 2026-04-22 13:21 | 50.86665 | 7.12159 | 232 ft | 22 kts | 165° |
| 2026-04-22 13:22 | 50.86515 | 7.12220 | 232 ft | 23 kts | 168° |
| 2026-04-22 13:22 | 50.86360 | 7.12282 | 232 ft | 23 kts | 165° |
| 2026-04-22 13:22 | 50.86213 | 7.12339 | 233 ft | 19 kts | 172° |
| 2026-04-22 13:22 | 50.86095 | 7.12371 | 238 ft | 15 kts | 168° |
| 2026-04-22 13:23 | 50.86031 | 7.12425 | 239 ft | 9 kts | 95° |
| 2026-04-22 13:23 | 50.86043 | 7.12477 | 239 ft | 0 kts | 63° |
| 2026-04-22 13:23 | 50.86043 | 7.12479 | 239 ft | 2 kts | 63° |
| 2026-04-22 13:23 | 50.86121 | 7.12732 | 242 ft | 61 kts | 64° |
| 2026-04-22 13:24 | 50.86400 | 7.13657 | 253 ft | 123 kts | 64° |
| 2026-04-22 13:24 | 50.86827 | 7.15068 | 490 ft | 148 kts | 66° |
| 2026-04-22 13:24 | 50.87267 | 7.16522 | 1194 ft | 146 kts | 64° |
| 2026-04-22 13:24 | 50.87690 | 7.17957 | 1886 ft | 146 kts | 65° |
| 2026-04-22 13:25 | 50.88132 | 7.19478 | 2254 ft | 162 kts | 66° |
| 2026-04-22 13:25 | 50.88634 | 7.21217 | 2558 ft | 184 kts | 65° |
| 2026-04-22 13:25 | 50.89205 | 7.23168 | 2812 ft | 206 kts | 65° |
| 2026-04-22 13:25 | 50.89846 | 7.25351 | 3080 ft | 231 kts | 65° |
| 2026-04-22 13:26 | 50.90552 | 7.27759 | 3570 ft | 248 kts | 65° |
| 2026-04-22 13:26 | 50.91289 | 7.30270 | 4312 ft | 254 kts | 65° |
| 2026-04-22 13:26 | 50.92034 | 7.32821 | 5179 ft | 256 kts | 66° |
| 2026-04-22 13:26 | 50.92474 | 7.35555 | 5980 ft | 259 kts | 86° |
| 2026-04-22 13:27 | 50.92594 | 7.38403 | 6872 ft | 259 kts | 87° |
| 2026-04-22 13:27 | 50.92706 | 7.41247 | 7698 ft | 259 kts | 87° |
| 2026-04-22 13:27 | 50.92814 | 7.44109 | 8471 ft | 261 kts | 88° |
| 2026-04-22 13:27 | 50.92566 | 7.46966 | 9218 ft | 266 kts | 108° |
| 2026-04-22 13:28 | 50.91918 | 7.49731 | 9952 ft | 269 kts | 109° |
| 2026-04-22 13:28 | 50.91246 | 7.52530 | 10586 ft | 277 kts | 109° |
| 2026-04-22 13:28 | 50.90529 | 7.55494 | 10759 ft | 300 kts | 109° |
| 2026-04-22 13:28 | 50.89754 | 7.58693 | 10897 ft | 323 kts | 109° |
| 2026-04-22 13:29 | 50.88931 | 7.62084 | 11286 ft | 335 kts | 109° |
| 2026-04-22 13:29 | 50.88088 | 7.65545 | 11894 ft | 339 kts | 109° |
| 2026-04-22 13:29 | 50.87233 | 7.69051 | 12531 ft | 343 kts | 109° |
| 2026-04-22 13:29 | 50.86368 | 7.72598 | 13168 ft | 347 kts | 109° |
| 2026-04-22 13:30 | 50.85495 | 7.76183 | 13799 ft | 350 kts | 109° |
| 2026-04-22 13:30 | 50.84614 | 7.79796 | 14383 ft | 354 kts | 108° |
| 2026-04-22 13:30 | 50.83733 | 7.83398 | 14952 ft | 357 kts | 108° |
| 2026-04-22 13:30 | 50.82832 | 7.87076 | 15525 ft | 359 kts | 108° |
| 2026-04-22 13:31 | 50.81924 | 7.90776 | 16100 ft | 362 kts | 108° |
| 2026-04-22 13:31 | 50.81007 | 7.94512 | 16670 ft | 365 kts | 108° |
| 2026-04-22 13:31 | 50.80087 | 7.98265 | 17241 ft | 367 kts | 108° |
| 2026-04-22 13:31 | 50.79157 | 8.02044 | 17793 ft | 371 kts | 108° |
| 2026-04-22 13:32 | 50.78212 | 8.05852 | 18343 ft | 374 kts | 108° |
| 2026-04-22 13:32 | 50.77261 | 8.09685 | 18854 ft | 377 kts | 108° |
| 2026-04-22 13:32 | 50.76316 | 8.13500 | 19317 ft | 379 kts | 108° |
| 2026-04-22 13:32 | 50.75337 | 8.17443 | 19806 ft | 382 kts | 108° |
| 2026-04-22 13:33 | 50.74362 | 8.21360 | 20288 ft | 384 kts | 108° |
| 2026-04-22 13:33 | 50.73392 | 8.25242 | 20759 ft | 387 kts | 108° |
| 2026-04-22 13:33 | 50.72401 | 8.29205 | 21218 ft | 390 kts | 108° |
| 2026-04-22 13:33 | 50.71396 | 8.33205 | 21650 ft | 393 kts | 109° |
| 2026-04-22 13:34 | 50.70109 | 8.37047 | 22070 ft | 400 kts | 120° |
| 2026-04-22 13:34 | 50.68359 | 8.40509 | 22490 ft | 408 kts | 130° |
| 2026-04-22 13:34 | 50.66183 | 8.43441 | 22914 ft | 416 kts | 141° |
| 2026-04-22 13:34 | 50.63666 | 8.45760 | 23305 ft | 423 kts | 148° |
| 2026-04-22 13:35 | 50.61059 | 8.47950 | 23676 ft | 425 kts | 148° |
| 2026-04-22 13:35 | 50.58444 | 8.50150 | 24031 ft | 428 kts | 148° |
| 2026-04-22 13:35 | 50.55812 | 8.52363 | 24356 ft | 430 kts | 148° |
| 2026-04-22 13:35 | 50.53170 | 8.54585 | 24679 ft | 432 kts | 148° |
| 2026-04-22 13:36 | 50.50508 | 8.56821 | 24987 ft | 434 kts | 149° |
| 2026-04-22 13:36 | 50.47840 | 8.59065 | 25289 ft | 436 kts | 148° |
| 2026-04-22 13:36 | 50.45246 | 8.61418 | 25580 ft | 436 kts | 142° |
| 2026-04-22 13:36 | 50.42861 | 8.64346 | 25869 ft | 434 kts | 134° |
| 2026-04-22 13:37 | 50.40686 | 8.67632 | 26150 ft | 436 kts | 133° |
| 2026-04-22 13:37 | 50.38500 | 8.70943 | 26430 ft | 438 kts | 133° |
| 2026-04-22 13:37 | 50.36302 | 8.74259 | 26711 ft | 440 kts | 133° |
| 2026-04-22 13:37 | 50.34091 | 8.77588 | 26985 ft | 442 kts | 133° |
| 2026-04-22 13:38 | 50.31869 | 8.80926 | 27251 ft | 444 kts | 133° |
| 2026-04-22 13:38 | 50.27383 | 8.87653 | 27743 ft | 449 kts | 133° |
| 2026-04-22 13:38 | 50.25116 | 8.91038 | 27985 ft | 451 kts | 133° |
| 2026-04-22 13:39 | 50.22840 | 8.94429 | 28223 ft | 453 kts | 133° |
| 2026-04-22 13:39 | 50.20559 | 8.97826 | 28459 ft | 454 kts | 133° |
| 2026-04-22 13:39 | 50.18262 | 9.01244 | 28686 ft | 456 kts | 133° |
| 2026-04-22 13:39 | 50.15989 | 9.04626 | 28902 ft | 458 kts | 133° |
| 2026-04-22 13:40 | 50.13653 | 9.08100 | 29123 ft | 459 kts | 133° |
| 2026-04-22 13:40 | 50.11367 | 9.11497 | 29324 ft | 461 kts | 133° |
| 2026-04-22 13:40 | 50.09033 | 9.14954 | 29526 ft | 462 kts | 133° |
| 2026-04-22 13:40 | 50.06703 | 9.18399 | 29790 ft | 463 kts | 133° |
| 2026-04-22 13:41 | 50.04368 | 9.21849 | 30023 ft | 463 kts | 133° |
| 2026-04-22 13:41 | 50.02031 | 9.25306 | 30242 ft | 465 kts | 133° |
| 2026-04-22 13:41 | 49.99682 | 9.28773 | 30474 ft | 465 kts | 134° |
| 2026-04-22 13:41 | 49.97334 | 9.32235 | 30690 ft | 465 kts | 134° |
| 2026-04-22 13:42 | 49.94988 | 9.35691 | 30900 ft | 465 kts | 134° |
| 2026-04-22 13:42 | 49.92637 | 9.39147 | 31116 ft | 465 kts | 134° |
| 2026-04-22 13:42 | 49.90286 | 9.42600 | 31326 ft | 465 kts | 134° |
| 2026-04-22 13:42 | 49.87934 | 9.46051 | 31542 ft | 465 kts | 134° |
| 2026-04-22 13:43 | 49.85580 | 9.49494 | 31766 ft | 465 kts | 134° |
| 2026-04-22 13:43 | 49.83221 | 9.52939 | 31976 ft | 465 kts | 134° |
| 2026-04-22 13:43 | 49.80864 | 9.56381 | 32215 ft | 465 kts | 134° |
| 2026-04-22 13:43 | 49.78508 | 9.59815 | 32414 ft | 466 kts | 134° |
| 2026-04-22 13:44 | 49.76136 | 9.63256 | 32602 ft | 467 kts | 134° |
| 2026-04-22 13:44 | 49.73792 | 9.66648 | 32803 ft | 467 kts | 134° |
| 2026-04-22 13:44 | 49.71420 | 9.70075 | 33017 ft | 467 kts | 134° |
| 2026-04-22 13:44 | 49.69040 | 9.73513 | 33234 ft | 467 kts | 134° |
| 2026-04-22 13:45 | 49.66664 | 9.76946 | 33440 ft | 467 kts | 134° |
| 2026-04-22 13:45 | 49.64290 | 9.80375 | 33665 ft | 467 kts | 134° |
| 2026-04-22 13:45 | 49.61914 | 9.83805 | 33881 ft | 467 kts | 134° |
| 2026-04-22 13:45 | 49.59536 | 9.87229 | 34094 ft | 467 kts | 134° |
| 2026-04-22 13:46 | 49.57159 | 9.90639 | 34304 ft | 467 kts | 134° |
| 2026-04-22 13:46 | 49.54777 | 9.94049 | 34493 ft | 468 kts | 134° |
| 2026-04-22 13:46 | 49.52391 | 9.97460 | 34649 ft | 468 kts | 135° |
| 2026-04-22 13:46 | 49.50015 | 10.00853 | 34789 ft | 469 kts | 135° |
| 2026-04-22 13:47 | 49.47652 | 10.04229 | 34935 ft | 470 kts | 135° |
| 2026-04-22 13:47 | 49.45223 | 10.07696 | 35115 ft | 470 kts | 135° |
| 2026-04-22 13:47 | 49.42831 | 10.11106 | 35259 ft | 470 kts | 135° |
| 2026-04-22 13:47 | 49.40466 | 10.14476 | 35301 ft | 470 kts | 135° |
| 2026-04-22 13:48 | 49.35667 | 10.21297 | 35307 ft | 470 kts | 135° |
| 2026-04-22 13:48 | 49.30852 | 10.28093 | 35325 ft | 470 kts | 135° |
| 2026-04-22 13:49 | 49.26038 | 10.34868 | 35319 ft | 471 kts | 135° |
| 2026-04-22 13:49 | 49.21232 | 10.41691 | 35323 ft | 471 kts | 134° |
| 2026-04-22 13:50 | 49.16533 | 10.48690 | 35321 ft | 471 kts | 133° |
| 2026-04-22 13:50 | 49.11875 | 10.55735 | 35329 ft | 471 kts | 133° |
| 2026-04-22 13:51 | 49.07191 | 10.62739 | 35330 ft | 471 kts | 133° |
| 2026-04-22 13:51 | 49.02475 | 10.69689 | 35332 ft | 472 kts | 134° |
| 2026-04-22 13:52 | 48.97739 | 10.76612 | 35323 ft | 472 kts | 134° |
| 2026-04-22 13:52 | 48.93029 | 10.83489 | 35308 ft | 473 kts | 134° |
| 2026-04-22 13:53 | 48.88294 | 10.90420 | 35297 ft | 473 kts | 134° |
| 2026-04-22 13:53 | 48.83555 | 10.97357 | 35285 ft | 473 kts | 134° |
| 2026-04-22 13:54 | 48.78806 | 11.04291 | 35299 ft | 473 kts | 134° |
| 2026-04-22 13:54 | 48.74052 | 11.11195 | 35273 ft | 474 kts | 134° |
| 2026-04-22 13:55 | 48.69269 | 11.18089 | 35271 ft | 475 kts | 134° |
| 2026-04-22 13:55 | 48.64531 | 11.25047 | 35264 ft | 474 kts | 129° |
| 2026-04-22 13:56 | 48.60543 | 11.32840 | 35269 ft | 472 kts | 124° |
| 2026-04-22 13:56 | 48.56584 | 11.40811 | 35294 ft | 471 kts | 124° |
| 2026-04-22 13:57 | 48.52666 | 11.48658 | 35293 ft | 471 kts | 124° |
| 2026-04-22 13:57 | 48.48400 | 11.56150 | 35280 ft | 474 kts | 137° |
| 2026-04-22 13:58 | 48.42797 | 11.61425 | 35263 ft | 478 kts | 157° |
| 2026-04-22 13:58 | 48.36380 | 11.64107 | 35257 ft | 480 kts | 167° |
| 2026-04-22 13:59 | 48.29932 | 11.66716 | 35275 ft | 480 kts | 156° |
| 2026-04-22 13:59 | 48.24222 | 11.71763 | 35271 ft | 475 kts | 138° |
| 2026-04-22 14:00 | 48.19672 | 11.78872 | 35268 ft | 472 kts | 128° |
| 2026-04-22 14:00 | 48.15007 | 11.85844 | 35262 ft | 475 kts | 135° |
| 2026-04-22 14:01 | 48.10128 | 11.92521 | 35270 ft | 475 kts | 135° |
| 2026-04-22 14:01 | 48.05257 | 11.99217 | 35292 ft | 475 kts | 135° |
| 2026-04-22 14:02 | 48.00397 | 12.05914 | 35280 ft | 476 kts | 135° |
| 2026-04-22 14:02 | 47.95510 | 12.12615 | 35271 ft | 476 kts | 135° |
| 2026-04-22 14:03 | 47.90602 | 12.19187 | 35265 ft | 478 kts | 137° |
| 2026-04-22 14:03 | 47.85508 | 12.25559 | 35259 ft | 478 kts | 138° |
| 2026-04-22 14:04 | 47.80367 | 12.31859 | 35258 ft | 479 kts | 138° |
| 2026-04-22 14:04 | 47.75271 | 12.38161 | 35249 ft | 479 kts | 138° |
| 2026-04-22 14:05 | 47.70166 | 12.44546 | 35241 ft | 480 kts | 138° |
| 2026-04-22 14:06 | 47.62464 | 12.54083 | 35239 ft | 481 kts | 138° |
| 2026-04-22 14:06 | 47.57482 | 12.60697 | 35242 ft | 480 kts | 134° |
| 2026-04-22 14:07 | 47.52681 | 12.67578 | 35262 ft | 480 kts | 133° |
| 2026-04-22 14:07 | 47.48688 | 12.73285 | 35246 ft | 481 kts | 134° |
| 2026-04-22 14:08 | 47.43807 | 12.80078 | 35232 ft | 482 kts | 135° |
| 2026-04-22 14:08 | 47.38888 | 12.86817 | 35233 ft | 483 kts | 135° |
| 2026-04-22 14:09 | 47.33956 | 12.93560 | 35232 ft | 483 kts | 135° |
| 2026-04-22 14:09 | 47.29035 | 13.00308 | 35245 ft | 483 kts | 135° |
| 2026-04-22 14:10 | 47.24116 | 13.07057 | 35240 ft | 484 kts | 135° |
| 2026-04-22 14:10 | 47.19217 | 13.13763 | 35222 ft | 485 kts | 135° |
| 2026-04-22 14:11 | 47.14262 | 13.20497 | 35224 ft | 485 kts | 135° |
| 2026-04-22 14:11 | 47.09300 | 13.27224 | 35239 ft | 485 kts | 135° |
| 2026-04-22 14:12 | 47.04345 | 13.33946 | 35239 ft | 485 kts | 135° |
| 2026-04-22 14:12 | 46.99379 | 13.40663 | 35205 ft | 485 kts | 135° |
| 2026-04-22 14:13 | 46.94437 | 13.47316 | 35195 ft | 486 kts | 135° |
| 2026-04-22 14:13 | 46.89455 | 13.54011 | 35180 ft | 486 kts | 135° |
| 2026-04-22 14:14 | 46.84463 | 13.60696 | 35210 ft | 487 kts | 135° |
| 2026-04-22 14:14 | 46.79474 | 13.67367 | 35200 ft | 486 kts | 135° |
| 2026-04-22 14:15 | 46.74471 | 13.74028 | 35185 ft | 487 kts | 136° |
| 2026-04-22 14:15 | 46.69464 | 13.80687 | 35178 ft | 488 kts | 136° |
| 2026-04-22 14:16 | 46.64448 | 13.87349 | 35175 ft | 488 kts | 136° |
| 2026-04-22 14:16 | 46.59452 | 13.93958 | 35201 ft | 488 kts | 136° |
| 2026-04-22 14:17 | 46.54428 | 14.00582 | 35199 ft | 487 kts | 136° |
| 2026-04-22 14:17 | 46.49403 | 14.07196 | 35189 ft | 487 kts | 136° |
| 2026-04-22 14:18 | 46.44376 | 14.13783 | 35189 ft | 487 kts | 136° |
| 2026-04-22 14:18 | 46.39341 | 14.20367 | 35186 ft | 487 kts | 136° |
| 2026-04-22 14:19 | 46.34307 | 14.26942 | 35176 ft | 487 kts | 136° |
| 2026-04-22 14:19 | 46.29267 | 14.33507 | 35168 ft | 488 kts | 136° |
| 2026-04-22 14:20 | 46.21694 | 14.43335 | 35165 ft | 488 kts | 137° |
| 2026-04-22 14:20 | 46.16629 | 14.49896 | 35188 ft | 489 kts | 137° |
| 2026-04-22 14:21 | 46.09051 | 14.59674 | 35180 ft | 489 kts | 137° |
| 2026-04-22 14:22 | 46.01434 | 14.69462 | 35172 ft | 489 kts | 137° |
| 2026-04-22 14:23 | 45.93797 | 14.79225 | 35199 ft | 490 kts | 137° |
| 2026-04-22 14:23 | 45.88687 | 14.85739 | 35201 ft | 490 kts | 137° |
| 2026-04-22 14:24 | 45.83588 | 14.92238 | 35198 ft | 490 kts | 137° |
| 2026-04-22 14:24 | 45.78508 | 14.98686 | 35200 ft | 490 kts | 137° |
| 2026-04-22 14:25 | 45.73394 | 15.05158 | 35196 ft | 490 kts | 138° |
| 2026-04-22 14:25 | 45.68275 | 15.11604 | 35212 ft | 490 kts | 138° |
| 2026-04-22 14:26 | 45.63161 | 15.18048 | 35213 ft | 490 kts | 138° |
| 2026-04-22 14:26 | 45.58049 | 15.24482 | 35212 ft | 490 kts | 138° |
| 2026-04-22 14:27 | 45.52928 | 15.30902 | 35199 ft | 490 kts | 138° |
| 2026-04-22 14:27 | 45.47801 | 15.37302 | 35196 ft | 490 kts | 139° |
| 2026-04-22 14:28 | 45.42659 | 15.43708 | 35194 ft | 491 kts | 138° |
| 2026-04-22 14:28 | 45.37512 | 15.50114 | 35198 ft | 491 kts | 139° |
| 2026-04-22 14:29 | 45.32392 | 15.56461 | 35196 ft | 492 kts | 139° |
| 2026-04-22 14:29 | 45.27231 | 15.62846 | 35195 ft | 492 kts | 139° |
| 2026-04-22 14:30 | 45.22063 | 15.69236 | 35191 ft | 493 kts | 139° |
| 2026-04-22 14:30 | 45.16883 | 15.75618 | 35189 ft | 493 kts | 139° |
| 2026-04-22 14:31 | 45.11698 | 15.81984 | 35195 ft | 493 kts | 139° |
| 2026-04-22 14:31 | 45.06503 | 15.88351 | 35199 ft | 494 kts | 139° |
| 2026-04-22 14:32 | 45.01303 | 15.94702 | 35193 ft | 495 kts | 140° |
| 2026-04-22 14:32 | 44.96121 | 16.01016 | 35190 ft | 495 kts | 140° |
| 2026-04-22 14:33 | 44.90896 | 16.07374 | 35191 ft | 495 kts | 140° |
| 2026-04-22 14:33 | 44.85666 | 16.13715 | 35182 ft | 495 kts | 140° |
| 2026-04-22 14:34 | 44.80431 | 16.20046 | 35182 ft | 495 kts | 140° |
| 2026-04-22 14:34 | 44.75225 | 16.26325 | 35170 ft | 496 kts | 140° |
| 2026-04-22 14:35 | 44.69978 | 16.32644 | 35171 ft | 496 kts | 140° |
| 2026-04-22 14:35 | 44.64730 | 16.38947 | 35164 ft | 496 kts | 140° |
| 2026-04-22 14:36 | 44.59474 | 16.45242 | 35176 ft | 496 kts | 141° |
| 2026-04-22 14:36 | 44.54212 | 16.51538 | 35145 ft | 497 kts | 141° |
| 2026-04-22 14:37 | 44.48946 | 16.57814 | 35148 ft | 497 kts | 141° |
| 2026-04-22 14:37 | 44.43689 | 16.64060 | 35146 ft | 498 kts | 141° |
| 2026-04-22 14:38 | 44.38401 | 16.70327 | 35163 ft | 498 kts | 141° |
| 2026-04-22 14:38 | 44.33115 | 16.76596 | 35248 ft | 499 kts | 141° |
| 2026-04-22 14:38 | 44.30463 | 16.79733 | 35409 ft | 499 kts | 141° |
| 2026-04-22 14:39 | 44.27810 | 16.82861 | 35559 ft | 499 kts | 141° |
| 2026-04-22 14:39 | 44.25151 | 16.85989 | 35726 ft | 499 kts | 141° |
| 2026-04-22 14:39 | 44.22499 | 16.89108 | 35886 ft | 499 kts | 141° |
| 2026-04-22 14:40 | 44.18091 | 16.94285 | 36153 ft | 498 kts | 141° |
| 2026-04-22 14:40 | 44.14546 | 16.98439 | 36396 ft | 497 kts | 141° |
| 2026-04-22 14:40 | 44.11899 | 17.01544 | 36555 ft | 497 kts | 141° |
| 2026-04-22 14:40 | 44.09256 | 17.04641 | 36667 ft | 497 kts | 142° |
| 2026-04-22 14:41 | 44.06612 | 17.07728 | 36799 ft | 497 kts | 142° |
| 2026-04-22 14:41 | 44.03963 | 17.10816 | 36927 ft | 497 kts | 142° |
| 2026-04-22 14:41 | 44.01318 | 17.13896 | 37088 ft | 496 kts | 142° |
| 2026-04-22 14:41 | 43.98707 | 17.16937 | 37129 ft | 497 kts | 142° |
| 2026-04-22 14:42 | 43.93409 | 17.23105 | 37124 ft | 496 kts | 142° |
| 2026-04-22 14:42 | 43.88110 | 17.29253 | 37114 ft | 496 kts | 142° |
| 2026-04-22 14:43 | 43.82800 | 17.35381 | 37118 ft | 497 kts | 142° |
| 2026-04-22 14:43 | 43.77474 | 17.41523 | 37102 ft | 498 kts | 142° |
| 2026-04-22 14:44 | 43.72149 | 17.47659 | 37097 ft | 498 kts | 142° |
| 2026-04-22 14:44 | 43.66819 | 17.53783 | 37101 ft | 499 kts | 143° |
| 2026-04-22 14:45 | 43.61478 | 17.59896 | 37061 ft | 499 kts | 143° |
| 2026-04-22 14:45 | 43.56165 | 17.65956 | 37059 ft | 499 kts | 143° |
| 2026-04-22 14:46 | 43.50807 | 17.72054 | 37064 ft | 499 kts | 143° |
| 2026-04-22 14:46 | 43.45445 | 17.78157 | 37083 ft | 500 kts | 143° |
| 2026-04-22 14:47 | 43.40076 | 17.84250 | 37040 ft | 500 kts | 143° |
| 2026-04-22 14:47 | 43.34706 | 17.90337 | 37037 ft | 501 kts | 143° |